Torbat-Heydarieh, Iran
Current Conditions -  °F | °C
As of 12:00 PM on Friday 31 Oct 2014 (Local Time) from OIMM Reporting Station
Clear Clear  
Wind Chill: 59°   Ceiling: Unl
Heat Index: 59°   Visibility: 6mi
Dew Point: 16°   Wind: 5mph
Humidity: 19%   Direction: 20°NNE
Pressure: 30.09"   Gusts: NA
Location:  35.27°N, 59.22°E
Report Text: OIMM 310900Z 02004KT CAVOK 15/M09 Q1019 A3010
Loading
Personal Weather Stations






























Interactive Weather Map
Tropical Storm Tracking
New forecast layout! Learn more

10-Day Weather Forecast

Advertisements
Track Severe Weather on mobile